Time;durP1;ratioP1;P1;durP2;ratioP2;P2;SDS_P1;SDS_P2;PMS_P1;PMS_P2;Temp;Humidity;BMP_temperature;BMP_pressure;BME280_temperature;BME280_humidity;BME280_pressure;Samples;Min_cycle;Max_cycle;Signal;HPM_P1;HPM_P2
2023/07/27 00:00:32;;;;;;;5.57;3.63;;;15.10;99.90;;;;;;5025689;28;20436;-71
2023/07/27 00:02:58;;;;;;;6.43;3.10;;;15.00;99.90;;;;;;5025844;28;20064;-71
2023/07/27 00:05:24;;;;;;;4.17;3.23;;;15.10;99.90;;;;;;5027046;28;20118;-72
2023/07/27 00:07:49;;;;;;;6.10;3.17;;;15.10;99.90;;;;;;5024873;28;20116;-72
2023/07/27 00:10:15;;;;;;;8.87;3.63;;;15.10;99.90;;;;;;5025628;28;20048;-71
2023/07/27 00:12:40;;;;;;;6.53;3.90;;;15.10;99.90;;;;;;5028068;28;20029;-71
2023/07/27 00:15:06;;;;;;;6.57;3.60;;;15.20;99.90;;;;;;5028405;28;20032;-71
2023/07/27 00:17:32;;;;;;;15.65;3.75;;;15.20;99.90;;;;;;5024968;28;20567;-71
2023/07/27 00:19:58;;;;;;;4.17;3.20;;;15.10;99.90;;;;;;5024470;28;20049;-72
2023/07/27 00:22:23;;;;;;;7.33;3.40;;;15.00;99.90;;;;;;5044226;28;20017;-72
2023/07/27 00:24:49;;;;;;;5.47;2.80;;;15.10;99.90;;;;;;5026205;28;20792;-72
2023/07/27 00:27:14;;;;;;;6.23;2.97;;;15.00;99.90;;;;;;5029017;28;20028;-73
2023/07/27 00:29:40;;;;;;;7.23;2.90;;;14.90;99.90;;;;;;5029292;28;20072;-71
2023/07/27 00:32:06;;;;;;;7.27;3.13;;;14.80;99.90;;;;;;5027863;28;20481;-71
2023/07/27 00:34:31;;;;;;;7.75;3.15;;;14.80;99.90;;;;;;5028866;28;20036;-71
2023/07/27 00:36:57;;;;;;;8.20;3.27;;;14.90;99.90;;;;;;5025203;28;20493;-72
2023/07/27 00:39:22;;;;;;;6.87;3.33;;;14.80;99.90;;;;;;5027771;28;20028;-71
2023/07/27 00:41:48;;;;;;;8.07;3.23;;;14.80;99.90;;;;;;5026144;28;20057;-71
2023/07/27 00:44:13;;;;;;;5.03;2.90;;;14.80;99.90;;;;;;5021485;28;20117;-71
2023/07/27 00:46:39;;;;;;;6.63;3.00;;;14.90;99.90;;;;;;5032262;28;20080;-70
2023/07/27 00:49:06;;;;;;;7.40;3.13;;;14.80;99.90;;;;;;5025327;28;20047;-71
2023/07/27 00:51:38;;;;;;;7.22;3.55;;;14.70;99.90;;;;;;5025146;28;20327;-71
2023/07/27 00:54:07;;;;;;;7.55;2.97;;;14.70;99.90;;;;;;5027706;28;20028;-72
2023/07/27 00:56:36;;;;;;;4.90;3.03;;;14.90;99.90;;;;;;5027177;28;20030;-72
2023/07/27 00:59:03;;;;;;;4.72;3.55;;;14.90;99.90;;;;;;5025282;28;20025;-71
2023/07/27 01:01:29;;;;;;;;;;;14.90;99.90;;;;;;5028814;28;20030;-71
2023/07/27 01:03:55;;;;;;;9.68;3.60;;;14.90;99.90;;;;;;5028502;28;20355;-70
2023/07/27 01:06:21;;;;;;;7.80;2.95;;;14.70;99.90;;;;;;5027801;28;20044;-71
2023/07/27 01:08:47;;;;;;;11.10;3.22;;;14.70;99.90;;;;;;5027543;28;20544;-71
2023/07/27 01:11:36;;;;;;;4.72;3.17;;;14.90;99.90;;;;;;5025527;28;20112;-71
2023/07/27 01:14:26;;;;;;;6.35;3.08;;;14.80;99.90;;;;;;5027897;28;20025;-70
2023/07/27 01:17:04;;;;;;;4.22;3.20;;;14.90;99.90;;;;;;5027536;28;20026;-71
2023/07/27 01:20:04;;;;;;;4.15;3.08;;;14.80;99.90;;;;;;5027474;28;20029;-71
2023/07/27 01:22:33;;;;;;;6.93;3.25;;;14.70;99.90;;;;;;5026910;28;20152;-71
2023/07/27 01:25:31;;;;;;;5.00;3.22;;;14.70;99.90;;;;;;5026740;28;20033;-72
2023/07/27 01:28:15;;;;;;;;;;;14.60;99.90;;;;;;5015610;28;20033;-71
2023/07/27 01:31:06;;;;;;;7.72;3.40;;;14.50;99.90;;;;;;5022793;28;19999;-71
2023/07/27 01:33:37;;;;;;;6.38;3.47;;;14.40;99.90;;;;;;5027868;28;20421;-71
2023/07/27 01:36:23;;;;;;;8.23;3.90;;;14.40;99.90;;;;;;5022269;28;20184;-71
2023/07/27 01:38:51;;;;;;;5.50;3.60;;;14.30;99.90;;;;;;5027476;28;20030;-71
2023/07/27 01:41:17;;;;;;;8.98;3.53;;;14.30;99.90;;;;;;5026056;28;20068;-71
2023/07/27 01:43:44;;;;;;;4.80;3.53;;;14.20;99.90;;;;;;5027104;28;20033;-71
2023/07/27 01:46:11;;;;;;;7.15;3.72;;;14.20;99.90;;;;;;5029790;28;20047;-71
2023/07/27 01:48:40;;;;;;;7.93;3.45;;;14.30;99.90;;;;;;5027286;28;20397;-71
2023/07/27 01:51:08;;;;;;;8.48;3.83;;;14.20;99.90;;;;;;5027288;28;20033;-71
2023/07/27 01:53:35;;;;;;;5.80;3.00;;;14.00;99.90;;;;;;5026538;28;20554;-70
2023/07/27 01:56:04;;;;;;;5.95;3.55;;;14.00;99.90;;;;;;5027578;28;20444;-71
2023/07/27 01:58:30;;;;;;;7.88;3.65;;;14.10;99.90;;;;;;5028167;28;20033;-72
2023/07/27 02:00:57;;;;;;;5.15;3.40;;;14.00;99.90;;;;;;5027126;28;20029;-71
2023/07/27 02:03:24;;;;;;;8.95;3.33;;;14.10;99.90;;;;;;5026918;28;20029;-71
2023/07/27 02:05:49;;;;;;;7.47;3.50;;;14.10;99.90;;;;;;5026645;28;20037;-71
2023/07/27 02:08:15;;;;;;;3.70;2.77;;;14.10;99.90;;;;;;5026254;28;20594;-71
2023/07/27 02:10:41;;;;;;;7.27;3.50;;;14.20;99.90;;;;;;5028100;28;20045;-71
2023/07/27 02:13:38;;;;;;;8.00;3.80;;;14.10;99.90;;;;;;5026782;28;20025;-72
2023/07/27 02:16:22;;;;;;;6.03;3.20;;;14.10;99.90;;;;;;5037315;28;20424;-71
2023/07/27 02:18:50;;;;;;;8.52;3.30;;;14.10;99.90;;;;;;5021292;28;20029;-71
2023/07/27 02:21:16;;;;;;;7.38;3.63;;;14.10;99.90;;;;;;5024305;28;20033;-71
2023/07/27 02:23:43;;;;;;;5.25;3.78;;;14.00;99.90;;;;;;5027245;28;20458;-71
2023/07/27 02:26:09;;;;;;;8.55;3.30;;;14.00;99.90;;;;;;5025624;28;20100;-71
2023/07/27 02:28:34;;;;;;;6.95;3.42;;;14.00;99.90;;;;;;5028575;28;20128;-71
2023/07/27 02:31:00;;;;;;;8.10;3.83;;;13.90;99.90;;;;;;5024340;28;20053;-72
2023/07/27 02:33:25;;;;;;;6.27;3.57;;;13.80;99.90;;;;;;5026628;28;20030;-71
2023/07/27 02:35:52;;;;;;;6.83;4.03;;;13.80;99.90;;;;;;5022705;28;20025;-71
2023/07/27 02:38:18;;;;;;;6.15;4.00;;;13.80;99.90;;;;;;5024806;28;20026;-72
2023/07/27 02:40:44;;;;;;;6.95;3.47;;;13.80;99.90;;;;;;5027980;28;20527;-71
2023/07/27 02:43:10;;;;;;;5.57;3.70;;;14.00;99.90;;;;;;5023242;28;20030;-70
2023/07/27 02:45:35;;;;;;;9.60;4.17;;;14.20;99.90;;;;;;5026466;28;20029;-72
2023/07/27 02:48:01;;;;;;;6.23;3.43;;;14.40;99.90;;;;;;5027581;28;20042;-71
2023/07/27 02:50:26;;;;;;;4.97;3.40;;;14.40;99.90;;;;;;5057797;28;20034;-71
2023/07/27 02:52:52;;;;;;;5.23;3.77;;;14.40;99.90;;;;;;5026315;28;20083;-71
2023/07/27 02:55:17;;;;;;;5.83;3.30;;;14.00;99.90;;;;;;5022254;28;20025;-72
2023/07/27 02:57:43;;;;;;;5.80;3.40;;;14.10;99.90;;;;;;5026356;28;20583;-72
2023/07/27 03:00:09;;;;;;;6.20;3.17;;;14.20;99.90;;;;;;5023841;28;20040;-71
2023/07/27 03:02:35;;;;;;;5.45;3.25;;;14.20;99.90;;;;;;5024966;28;20839;-72
2023/07/27 03:05:02;;;;;;;4.63;2.92;;;14.30;99.90;;;;;;5023669;28;20117;-73
2023/07/27 03:07:28;;;;;;;7.65;3.45;;;14.10;99.90;;;;;;5024835;28;20151;-71
2023/07/27 03:09:54;;;;;;;4.40;3.10;;;14.10;99.90;;;;;;5026133;28;20125;-71
2023/07/27 03:12:19;;;;;;;10.07;3.67;;;14.20;99.90;;;;;;5026393;28;20049;-70
2023/07/27 03:14:45;;;;;;;7.27;3.17;;;14.30;99.90;;;;;;5025583;28;20413;-71
2023/07/27 03:17:11;;;;;;;5.90;3.43;;;14.30;99.90;;;;;;5026185;28;20018;-71
2023/07/27 03:19:36;;;;;;;5.60;3.13;;;14.30;99.90;;;;;;5028530;28;20057;-71
2023/07/27 03:22:02;;;;;;;10.17;3.83;;;14.20;99.90;;;;;;5022319;28;20025;-71
2023/07/27 03:24:27;;;;;;;6.60;3.60;;;14.10;99.90;;;;;;5026052;28;20026;-70
2023/07/27 03:26:53;;;;;;;5.77;3.70;;;14.20;99.90;;;;;;5022580;28;20025;-72
2023/07/27 03:29:19;;;;;;;9.73;3.70;;;14.20;99.90;;;;;;5025283;28;20041;-72
2023/07/27 03:31:44;;;;;;;6.43;3.10;;;14.30;99.90;;;;;;5025575;28;20037;-73
2023/07/27 03:34:10;;;;;;;6.27;3.60;;;14.30;99.90;;;;;;5021408;28;20322;-71
2023/07/27 03:36:36;;;;;;;5.43;3.63;;;14.30;99.90;;;;;;5027910;28;20095;-71
2023/07/27 03:39:01;;;;;;;8.70;3.47;;;14.30;99.90;;;;;;5021153;28;20040;-72
2023/07/27 03:41:27;;;;;;;11.00;3.80;;;14.20;99.90;;;;;;5025624;28;20112;-72
2023/07/27 03:43:53;;;;;;;9.17;3.67;;;14.20;99.90;;;;;;5026361;28;20045;-71
2023/07/27 03:46:18;;;;;;;5.90;3.43;;;14.10;99.90;;;;;;5026179;28;20191;-71
2023/07/27 03:48:48;;;;;;;6.27;3.63;;;14.00;99.90;;;;;;5025683;28;20033;-73
2023/07/27 03:51:13;;;;;;;6.88;3.55;;;13.90;99.90;;;;;;5024996;28;20109;-72
2023/07/27 03:53:39;;;;;;;4.75;3.75;;;13.80;99.90;;;;;;5025376;28;20096;-70
2023/07/27 03:56:05;;;;;;;6.43;4.07;;;14.00;99.90;;;;;;5026527;28;20102;-70
2023/07/27 03:58:31;;;;;;;8.30;4.13;;;13.90;99.90;;;;;;5029951;28;20080;-72
2023/07/27 04:00:57;;;;;;;6.45;4.15;;;13.90;99.90;;;;;;5030165;28;20134;-72
2023/07/27 04:03:22;;;;;;;5.95;4.05;;;13.50;99.90;;;;;;5021970;28;20029;-70
2023/07/27 04:05:49;;;;;;;5.30;3.93;;;13.60;99.90;;;;;;5022978;28;20570;-74
2023/07/27 04:08:15;;;;;;;;;;;13.50;99.90;;;;;;5026802;28;20029;-71
2023/07/27 04:10:40;;;;;;;7.53;4.22;;;13.40;99.90;;;;;;5026794;28;20284;-72
2023/07/27 04:13:06;;;;;;;5.13;3.40;;;13.60;99.90;;;;;;5023250;28;20028;-72
2023/07/27 04:15:33;;;;;;;8.03;4.13;;;13.70;99.90;;;;;;5028413;28;20087;-72
2023/07/27 04:17:58;;;;;;;7.63;3.40;;;13.40;99.90;;;;;;5027256;28;20035;-71
2023/07/27 04:20:24;;;;;;;4.83;3.47;;;13.50;99.90;;;;;;5027905;28;20041;-72
2023/07/27 04:22:49;;;;;;;10.30;4.10;;;13.40;99.90;;;;;;5025421;28;20767;-72
2023/07/27 04:25:15;;;;;;;8.33;3.83;;;13.50;99.90;;;;;;5019527;28;20379;-71
2023/07/27 04:27:41;;;;;;;5.77;3.23;;;13.40;99.90;;;;;;5032084;28;20025;-71
2023/07/27 04:30:06;;;;;;;6.47;3.80;;;13.40;99.90;;;;;;5031724;28;20075;-71
2023/07/27 04:32:32;;;;;;;5.70;3.13;;;13.30;99.90;;;;;;5028492;28;20113;-71
2023/07/27 04:34:58;;;;;;;5.10;3.00;;;13.40;99.90;;;;;;5028510;28;20029;-71
2023/07/27 04:37:24;;;;;;;6.23;3.30;;;13.40;99.90;;;;;;5029877;28;20513;-70
2023/07/27 04:39:49;;;;;;;9.88;3.90;;;13.20;99.90;;;;;;5033440;28;20030;-71
2023/07/27 04:42:15;;;;;;;6.60;3.70;;;13.00;99.90;;;;;;5027876;28;20087;-71
2023/07/27 04:44:41;;;;;;;8.43;3.77;;;13.10;99.90;;;;;;5025546;28;20037;-72
2023/07/27 04:47:06;;;;;;;14.10;3.93;;;13.20;99.90;;;;;;5029408;28;20032;-71
2023/07/27 04:49:32;;;;;;;7.90;3.97;;;13.20;99.90;;;;;;5028345;28;20404;-71
2023/07/27 04:51:58;;;;;;;6.40;3.77;;;13.30;99.90;;;;;;5028049;28;20480;-71
2023/07/27 04:54:23;;;;;;;6.80;3.77;;;13.30;99.90;;;;;;5031472;28;20034;-71
2023/07/27 04:56:49;;;;;;;8.53;3.67;;;13.30;99.90;;;;;;5030710;28;20041;-71
2023/07/27 04:59:15;;;;;;;6.67;4.47;;;13.30;99.90;;;;;;5025989;28;20028;-71
2023/07/27 05:01:40;;;;;;;5.95;3.90;;;13.30;99.90;;;;;;5029491;28;20532;-71
2023/07/27 05:04:06;;;;;;;6.90;3.97;;;13.30;99.90;;;;;;5034450;28;20032;-71
2023/07/27 05:06:32;;;;;;;10.10;3.90;;;13.30;99.90;;;;;;5026063;28;20116;-69
2023/07/27 05:08:57;;;;;;;8.80;4.23;;;13.50;99.90;;;;;;5032681;28;20075;-69
2023/07/27 05:11:23;;;;;;;9.23;4.07;;;13.70;99.90;;;;;;5033847;28;20459;-70
2023/07/27 05:13:50;;;;;;;7.80;3.40;;;14.20;99.90;;;;;;5024759;28;20037;-69
2023/07/27 05:16:16;;;;;;;4.35;3.50;;;15.30;99.90;;;;;;5020196;28;20421;-68
2023/07/27 05:18:41;;;;;;;7.33;3.50;;;15.90;99.90;;;;;;5027864;28;20080;-71
2023/07/27 05:21:07;;;;;;;7.63;3.80;;;15.70;99.90;;;;;;5023173;28;20041;-69
2023/07/27 05:23:33;;;;;;;7.77;3.70;;;17.30;96.40;;;;;;5022835;28;20531;-69
2023/07/27 05:25:58;;;;;;;5.77;4.10;;;17.30;94.50;;;;;;5017903;28;20140;-69
2023/07/27 05:28:25;;;;;;;6.33;3.40;;;17.50;95.50;;;;;;5024984;28;20485;-68
2023/07/27 05:30:51;;;;;;;6.30;4.78;;;18.30;92.00;;;;;;5027750;28;20049;-69
2023/07/27 05:33:16;;;;;;;6.47;3.53;;;19.30;89.20;;;;;;5038475;28;20574;-68
2023/07/27 05:35:47;;;;;;;6.07;3.40;;;19.90;85.90;;;;;;5031282;28;20033;-69
2023/07/27 05:38:13;;;;;;;4.97;3.30;;;20.40;80.70;;;;;;5032202;28;20143;-68
2023/07/27 05:40:38;;;;;;;7.20;3.50;;;21.60;78.50;;;;;;5032434;28;20211;-68
2023/07/27 05:43:04;;;;;;;10.13;3.80;;;22.00;74.70;;;;;;5029892;28;20048;-70
2023/07/27 05:45:30;;;;;;;5.43;3.35;;;23.30;74.70;;;;;;5032918;28;20556;-69
2023/07/27 05:47:56;;;;;;;16.83;4.97;;;23.50;68.40;;;;;;5025093;28;20037;-69
2023/07/27 05:50:22;;;;;;;5.63;3.00;;;25.20;68.00;;;;;;5024457;28;20303;-69
2023/07/27 05:52:47;;;;;;;5.75;3.58;;;24.50;63.90;;;;;;5031947;28;20438;-69
2023/07/27 05:55:13;;;;;;;6.90;3.10;;;25.10;63.50;;;;;;5027611;28;20041;-69
2023/07/27 05:57:41;;;;;;;3.07;2.60;;;24.30;64.30;;;;;;5022336;28;20072;-69
2023/07/27 06:00:07;;;;;;;4.38;2.55;;;23.10;66.90;;;;;;5029343;28;20119;-69
2023/07/27 06:02:33;;;;;;;11.90;4.35;;;22.20;67.50;;;;;;5026880;28;20394;-69
2023/07/27 06:04:59;;;;;;;5.15;3.30;;;23.40;68.50;;;;;;5021540;28;20444;-69
2023/07/27 06:07:26;;;;;;;8.93;3.50;;;22.70;66.70;;;;;;5028490;28;20071;-70
2023/07/27 06:09:51;;;;;;;7.60;3.05;;;24.50;65.10;;;;;;5027856;28;20441;-70
2023/07/27 06:12:18;;;;;;;8.32;2.85;;;23.10;67.90;;;;;;5032417;28;20026;-70
2023/07/27 06:14:44;;;;;;;5.60;3.38;;;21.60;73.40;;;;;;5021785;28;20042;-70
2023/07/27 06:17:10;;;;;;;4.30;3.17;;;21.00;75.70;;;;;;5029742;28;20032;-70
2023/07/27 06:19:36;;;;;;;8.18;3.00;;;20.50;77.80;;;;;;5025164;28;20079;-69
2023/07/27 06:22:02;;;;;;;5.23;2.70;;;20.80;78.60;;;;;;5024608;28;20033;-69
2023/07/27 06:24:27;;;;;;;5.15;2.55;;;20.80;79.30;;;;;;5028427;28;20378;-69
2023/07/27 06:26:53;;;;;;;6.07;2.87;;;20.20;78.70;;;;;;5027017;28;20029;-69
2023/07/27 06:29:18;;;;;;;6.13;2.60;;;19.80;80.40;;;;;;5026241;28;20646;-69
2023/07/27 06:31:44;;;;;;;5.30;3.10;;;20.90;79.80;;;;;;5022482;28;20099;-70
2023/07/27 06:34:10;;;;;;;5.45;3.03;;;20.60;78.40;;;;;;5027604;28;20043;-70
2023/07/27 06:36:36;;;;;;;7.50;2.65;;;19.90;79.40;;;;;;5029321;28;20036;-70
2023/07/27 06:39:01;;;;;;;4.17;2.77;;;19.40;82.00;;;;;;5027102;28;20152;-71
2023/07/27 06:41:27;;;;;;;4.57;2.97;;;18.80;85.50;;;;;;5026014;28;20036;-70
2023/07/27 06:43:53;;;;;;;4.40;2.77;;;19.20;87.30;;;;;;5026159;28;20025;-70
2023/07/27 06:46:19;;;;;;;3.90;2.70;;;18.90;86.50;;;;;;5035619;28;20504;-70
2023/07/27 06:48:46;;;;;;;6.60;2.95;;;19.40;87.80;;;;;;5027308;28;20532;-69
2023/07/27 06:51:15;;;;;;;6.43;2.95;;;19.50;88.30;;;;;;5025957;28;20102;-67
2023/07/27 06:53:40;;;;;;;8.45;5.05;;;19.40;86.40;;;;;;5025364;28;20132;-68
2023/07/27 06:56:06;;;;;;;4.53;2.67;;;19.20;87.50;;;;;;5030752;28;20124;-66
2023/07/27 06:58:32;;;;;;;10.17;4.40;;;18.80;86.60;;;;;;5025272;28;20441;-69
2023/07/27 07:00:58;;;;;;;7.03;4.03;;;19.50;85.90;;;;;;5021022;28;20040;-66
2023/07/27 07:03:24;;;;;;;10.90;3.78;;;19.80;85.90;;;;;;5024184;28;20041;-65
2023/07/27 07:05:53;;;;;;;11.90;3.33;;;19.50;85.80;;;;;;5022363;28;20033;-63
2023/07/27 07:08:19;;;;;;;10.52;3.15;;;19.80;84.20;;;;;;5023450;28;20108;-64
2023/07/27 07:10:45;;;;;;;6.57;3.33;;;20.60;82.10;;;;;;5020265;28;20148;-64
2023/07/27 07:13:10;;;;;;;9.20;3.33;;;20.30;85.20;;;;;;5025331;28;20109;-69
2023/07/27 07:15:36;;;;;;;4.73;2.60;;;20.10;83.10;;;;;;5023069;28;20067;-63
2023/07/27 07:18:02;;;;;;;3.43;2.40;;;19.90;84.70;;;;;;5025313;28;20028;-68
2023/07/27 07:20:27;;;;;;;6.53;3.03;;;20.40;82.80;;;;;;5026479;28;20024;-64
2023/07/27 07:22:53;;;;;;;12.67;4.87;;;20.50;79.60;;;;;;5028687;28;20325;-68
2023/07/27 07:25:18;;;;;;;6.23;2.73;;;20.70;84.20;;;;;;5025120;28;20112;-65
2023/07/27 07:27:44;;;;;;;7.27;2.20;;;20.20;78.40;;;;;;5025072;28;20460;-65
2023/07/27 07:30:11;;;;;;;4.93;2.77;;;20.40;80.60;;;;;;5024566;28;20455;-66
2023/07/27 07:32:37;;;;;;;5.43;2.60;;;20.50;79.60;;;;;;5026344;28;20033;-64
2023/07/27 07:35:02;;;;;;;3.67;1.80;;;20.40;80.60;;;;;;5029709;28;20030;-68
2023/07/27 07:37:28;;;;;;;5.27;2.50;;;20.30;80.10;;;;;;5027936;28;20090;-64
2023/07/27 07:39:53;;;;;;;5.17;2.43;;;20.30;82.40;;;;;;5029752;28;20314;-64
2023/07/27 07:42:19;;;;;;;5.07;2.30;;;20.50;82.40;;;;;;5029405;28;20112;-63
2023/07/27 07:44:46;;;;;;;3.30;2.37;;;20.60;79.70;;;;;;5028408;28;20033;-63
2023/07/27 07:47:11;;;;;;;5.55;2.30;;;21.10;80.80;;;;;;5031381;28;20033;-64
2023/07/27 07:49:37;;;;;;;5.23;2.47;;;21.60;74.60;;;;;;5029138;28;20072;-65
2023/07/27 07:52:03;;;;;;;4.88;2.10;;;22.20;74.40;;;;;;5030123;28;20029;-64
2023/07/27 07:54:29;;;;;;;4.00;2.28;;;21.60;76.10;;;;;;5030126;28;20021;-64
2023/07/27 07:56:55;;;;;;;3.40;2.30;;;21.30;80.20;;;;;;5027950;28;20171;-66
2023/07/27 07:59:21;;;;;;;9.45;3.28;;;21.40;80.10;;;;;;5028092;28;20556;-65
2023/07/27 08:01:47;;;;;;;5.32;2.50;;;21.70;80.60;;;;;;5025075;28;20032;-64
2023/07/27 08:04:12;;;;;;;7.73;3.17;;;21.20;81.50;;;;;;5028866;28;20377;-63
2023/07/27 08:06:38;;;;;;;5.23;2.70;;;21.50;79.50;;;;;;5028548;28;20112;-70
2023/07/27 08:09:05;;;;;;;8.90;3.40;;;21.40;80.60;;;;;;5024866;28;20025;-63
2023/07/27 08:11:31;;;;;;;5.20;2.67;;;21.70;82.50;;;;;;5027719;28;20095;-63
2023/07/27 08:13:58;;;;;;;5.30;2.40;;;23.00;77.80;;;;;;5026617;28;20021;-63
2023/07/27 08:16:24;;;;;;;3.75;2.70;;;22.90;78.90;;;;;;5026031;28;20083;-63
2023/07/27 08:18:50;;;;;;;11.95;3.10;;;23.50;76.90;;;;;;5029382;28;20728;-71
2023/07/27 08:21:15;;;;;;;8.83;3.23;;;23.90;73.20;;;;;;5028709;28;20063;-64
2023/07/27 08:23:41;;;;;;;9.33;3.60;;;23.70;73.30;;;;;;5028368;28;20104;-64
2023/07/27 08:26:09;;;;;;;5.53;3.00;;;23.40;75.70;;;;;;5027184;28;20025;-63
2023/07/27 08:28:35;;;;;;;6.68;2.58;;;25.40;71.50;;;;;;5028915;28;20041;-64
2023/07/27 08:31:03;;;;;;;7.15;3.17;;;28.30;64.10;;;;;;5028903;28;20040;-66
2023/07/27 08:33:30;;;;;;;4.82;2.45;;;27.00;66.40;;;;;;5026530;28;20074;-64
2023/07/27 08:35:57;;;;;;;7.65;2.85;;;26.10;66.80;;;;;;5028571;28;20171;-65
2023/07/27 08:38:23;;;;;;;4.20;2.20;;;25.30;68.70;;;;;;5027141;28;20026;-66
2023/07/27 08:41:09;;;;;;;;;;;26.20;65.20;;;;;;5026901;28;20041;-66
2023/07/27 08:43:35;;;;;;;9.70;2.88;;;27.20;64.20;;;;;;5026289;28;20446;-65
2023/07/27 08:46:01;;;;;;;5.35;2.53;;;27.70;63.10;;;;;;5028579;28;20051;-64
2023/07/27 08:48:28;;;;;;;5.90;2.50;;;29.30;61.00;;;;;;5027579;28;20079;-66
2023/07/27 08:50:55;;;;;;;3.58;2.28;;;29.00;59.40;;;;;;5027877;28;20817;-66
2023/07/27 08:53:21;;;;;;;5.00;2.22;;;27.20;63.20;;;;;;5024898;28;20018;-69
2023/07/27 08:55:47;;;;;;;5.95;2.35;;;26.50;63.00;;;;;;5028294;28;20382;-64
2023/07/27 08:58:13;;;;;;;;;;;27.60;62.60;;;;;;5026648;28;20021;-65
2023/07/27 09:00:39;;;;;;;9.32;2.67;;;27.80;60.80;;;;;;5023631;28;19909;-68
2023/07/27 09:03:08;;;;;;;3.67;2.80;;;27.30;62.20;;;;;;5025167;28;20044;-65
2023/07/27 09:06:05;;;;;;;6.18;2.30;;;26.10;63.60;;;;;;5026664;28;20029;-63
2023/07/27 09:08:31;;;;;;;5.43;2.75;;;25.40;64.80;;;;;;5010275;28;20033;-65
2023/07/27 09:11:10;;;;;;;6.83;3.10;;;25.30;66.20;;;;;;5026402;28;20056;-64
2023/07/27 09:13:37;;;;;;;3.45;2.50;;;26.90;63.50;;;;;;5026807;28;20389;-65
2023/07/27 09:16:03;;;;;;;2.83;2.35;;;30.60;59.20;;;;;;5031056;28;20021;-63
2023/07/27 09:18:35;;;;;;;3.38;2.35;;;34.40;52.50;;;;;;5027656;28;20116;-65
2023/07/27 09:21:08;;;;;;;5.13;2.28;;;35.80;49.90;;;;;;5027506;28;20026;-64
2023/07/27 09:23:35;;;;;;;3.17;2.00;;;36.30;45.90;;;;;;5028518;28;20029;-68
2023/07/27 09:26:00;;;;;;;6.45;2.22;;;37.90;45.50;;;;;;5025471;28;20025;-66
2023/07/27 09:28:27;;;;;;;;;;;39.00;44.70;;;;;;5026876;28;20040;-66
2023/07/27 09:31:05;;;;;;;2.30;2.00;;;39.50;43.20;;;;;;5026389;28;20396;-65
2023/07/27 09:33:31;;;;;;;4.05;2.53;;;40.50;42.40;;;;;;5026142;28;20042;-66
2023/07/27 09:35:57;;;;;;;3.08;1.80;;;41.40;42.60;;;;;;5024712;28;20029;-66
2023/07/27 09:38:27;;;;;;;6.75;2.20;;;40.90;42.00;;;;;;5028145;28;20067;-66
2023/07/27 09:40:53;;;;;;;6.70;2.10;;;40.10;40.80;;;;;;5026249;28;20029;-67
2023/07/27 09:43:22;;;;;;;2.38;2.17;;;41.00;42.10;;;;;;5024336;28;20034;-64
2023/07/27 09:45:54;;;;;;;3.88;1.90;;;41.80;41.20;;;;;;5027125;28;20024;-64
2023/07/27 09:48:19;;;;;;;2.60;2.17;;;40.60;40.90;;;;;;5026247;28;20017;-65
2023/07/27 09:50:45;;;;;;;4.55;1.98;;;41.70;41.30;;;;;;5027269;28;20041;-66
2023/07/27 09:53:14;;;;;;;7.00;2.45;;;42.70;41.60;;;;;;5026362;28;20022;-65
2023/07/27 09:55:41;;;;;;;1.70;1.60;;;42.80;40.80;;;;;;5021042;28;20053;-68
2023/07/27 09:58:08;;;;;;;3.63;1.80;;;42.30;40.00;;;;;;5024371;28;20074;-65
2023/07/27 10:00:33;;;;;;;4.07;1.77;;;42.30;39.00;;;;;;5026095;28;20401;-68
2023/07/27 10:02:59;;;;;;;3.83;1.90;;;41.60;40.70;;;;;;5023283;28;20025;-71
2023/07/27 10:05:24;;;;;;;3.63;2.20;;;42.60;41.30;;;;;;5024369;28;20036;-67
2023/07/27 10:07:50;;;;;;;4.75;1.80;;;44.00;40.20;;;;;;5025308;28;20025;-65
2023/07/27 10:10:33;;;;;;;2.92;1.92;;;40.20;37.80;;;;;;5025564;28;20131;-66
2023/07/27 10:13:07;;;;;;;2.35;1.75;;;42.40;41.40;;;;;;5025842;28;20033;-65
2023/07/27 10:15:40;;;;;;;3.00;2.00;;;44.30;40.30;;;;;;5026685;28;20063;-70
2023/07/27 10:18:06;;;;;;;2.97;1.75;;;44.00;38.10;;;;;;5024927;28;20030;-66
2023/07/27 10:20:33;;;;;;;3.65;2.08;;;41.40;41.00;;;;;;5026879;28;20394;-65
2023/07/27 10:23:19;;;;;;;2.88;1.90;;;42.10;40.50;;;;;;5025063;28;20136;-66
2023/07/27 10:26:11;;;;;;;3.75;1.98;;;43.50;40.30;;;;;;5026820;28;20112;-66
2023/07/27 10:28:44;;;;;;;3.03;1.70;;;41.20;39.30;;;;;;5024623;28;20057;-72
2023/07/27 10:31:23;;;;;;;2.90;1.67;;;37.50;42.30;;;;;;5023437;28;20033;-68
2023/07/27 10:34:13;;;;;;;3.28;1.88;;;37.00;41.80;;;;;;5025216;28;20056;-66
2023/07/27 10:36:52;;;;;;;4.53;1.80;;;38.80;41.70;;;;;;5023441;28;20029;-65
2023/07/27 10:39:29;;;;;;;2.47;1.77;;;34.80;46.00;;;;;;5030230;28;20163;-67
2023/07/27 10:42:06;;;;;;;1.73;1.33;;;33.30;48.00;;;;;;5024397;28;20033;-67
2023/07/27 10:44:54;;;;;;;1.55;1.40;;;31.60;49.60;;;;;;5021314;28;20026;-65
2023/07/27 10:47:30;;;;;;;3.00;1.70;;;29.80;52.30;;;;;;5027295;28;20414;-67
2023/07/27 10:49:57;;;;;;;1.95;1.48;;;29.30;53.10;;;;;;5027023;28;20048;-66
2023/07/27 10:52:24;;;;;;;2.08;1.60;;;28.60;53.10;;;;;;5023255;28;20076;-64
2023/07/27 10:54:51;;;;;;;3.45;1.58;;;29.20;55.00;;;;;;5026423;28;20076;-64
2023/07/27 10:57:18;;;;;;;4.53;1.90;;;29.40;54.90;;;;;;5022015;28;20021;-64
2023/07/27 10:59:46;;;;;;;3.35;1.80;;;29.60;55.70;;;;;;5024577;28;20029;-65
2023/07/27 11:02:17;;;;;;;2.33;1.70;;;28.80;53.60;;;;;;5022143;28;20503;-69
2023/07/27 11:04:43;;;;;;;5.40;1.60;;;29.20;57.90;;;;;;5019343;28;20033;-64
2023/07/27 11:07:10;;;;;;;2.10;1.60;;;28.80;55.10;;;;;;5020330;28;20025;-65
2023/07/27 11:09:36;;;;;;;3.17;1.48;;;28.80;55.60;;;;;;5027037;28;20045;-71
2023/07/27 11:12:02;;;;;;;;;;;28.80;54.20;;;;;;5024400;28;20112;-72
2023/07/27 11:14:28;;;;;;;28.20;7.18;;;28.80;58.00;;;;;;5028774;28;19991;-65
2023/07/27 11:16:54;;;;;;;19.63;5.30;;;28.80;58.90;;;;;;5026322;28;20021;-67
2023/07/27 11:19:21;;;;;;;3.30;1.83;;;28.80;58.50;;;;;;5025247;28;20531;-66
2023/07/27 11:21:49;;;;;;;1.88;1.48;;;28.70;55.70;;;;;;5024230;28;20021;-69
2023/07/27 11:24:16;;;;;;;2.60;1.75;;;28.80;53.40;;;;;;5026125;28;20528;-67
2023/07/27 11:26:42;;;;;;;1.92;1.23;;;28.90;56.10;;;;;;5025710;28;20044;-68
2023/07/27 11:29:09;;;;;;;1.83;1.17;;;29.00;51.30;;;;;;5026220;28;20485;-66
2023/07/27 11:31:35;;;;;;;2.38;1.48;;;29.00;51.70;;;;;;5025859;28;20033;-69
2023/07/27 11:34:03;;;;;;;1.63;1.20;;;28.80;50.50;;;;;;5024316;28;20022;-69
2023/07/27 11:36:30;;;;;;;3.55;1.63;;;28.10;50.40;;;;;;5027824;28;20108;-68
2023/07/27 11:38:57;;;;;;;2.65;1.30;;;28.60;51.30;;;;;;5027564;28;20021;-66
2023/07/27 11:41:26;;;;;;;2.83;1.20;;;28.80;51.40;;;;;;5023534;28;20037;-67
2023/07/27 11:43:55;;;;;;;1.63;1.35;;;29.20;52.00;;;;;;5026030;28;20069;-70
2023/07/27 11:46:22;;;;;;;2.13;1.33;;;29.10;53.00;;;;;;5022157;28;20040;-66
2023/07/27 11:48:49;;;;;;;18.35;4.53;;;29.60;54.00;;;;;;5033297;28;20029;-64
2023/07/27 11:51:15;;;;;;;2.05;1.40;;;29.70;52.40;;;;;;5026316;28;20048;-64
2023/07/27 11:53:44;;;;;;;1.40;1.30;;;29.40;54.70;;;;;;5018222;28;20385;-64
2023/07/27 11:56:10;;;;;;;1.63;1.23;;;29.60;54.30;;;;;;5020591;28;20517;-64
2023/07/27 11:58:37;;;;;;;1.35;1.13;;;29.30;53.60;;;;;;5029681;28;20029;-64
2023/07/27 12:01:03;;;;;;;2.00;1.50;;;29.20;53.40;;;;;;5023520;28;20030;-64
2023/07/27 12:03:33;;;;;;;2.38;1.73;;;29.50;52.30;;;;;;5027266;28;20028;-64
2023/07/27 12:06:03;;;;;;;3.80;1.67;;;29.40;53.40;;;;;;5030770;28;20114;-64
2023/07/27 12:08:30;;;;;;;2.28;1.70;;;29.30;50.70;;;;;;5025964;28;20022;-65
2023/07/27 12:10:59;;;;;;;2.63;1.80;;;29.30;50.90;;;;;;5056751;28;20041;-65
2023/07/27 12:13:27;;;;;;;1.80;1.50;;;29.40;51.20;;;;;;5028952;28;20503;-64
2023/07/27 12:16:10;;;;;;;2.13;1.40;;;29.30;53.30;;;;;;5025284;28;20033;-64
2023/07/27 12:18:36;;;;;;;3.30;1.83;;;29.30;53.20;;;;;;5027267;28;20034;-64
2023/07/27 12:21:02;;;;;;;10.52;2.15;;;29.30;50.80;;;;;;5029775;28;20780;-65
2023/07/27 12:23:28;;;;;;;5.25;1.63;;;29.40;55.50;;;;;;5027640;28;20037;-64
2023/07/27 12:25:55;;;;;;;3.03;1.63;;;29.30;53.80;;;;;;5018022;28;20044;-64
2023/07/27 12:28:20;;;;;;;4.78;3.50;;;29.50;53.80;;;;;;5038416;28;20404;-64
2023/07/27 12:30:46;;;;;;;4.13;2.67;;;29.50;54.40;;;;;;5018962;28;20144;-64
2023/07/27 12:33:12;;;;;;;4.93;1.75;;;29.40;53.30;;;;;;5019139;28;20030;-64
2023/07/27 12:35:38;;;;;;;;;;;29.10;51.10;;;;;;5029382;28;20048;-64
2023/07/27 12:38:04;;;;;;;2.60;1.90;;;29.10;55.10;;;;;;5032544;28;20365;-64
2023/07/27 12:40:30;;;;;;;2.50;1.67;;;29.40;52.20;;;;;;5031524;28;20033;-64
2023/07/27 12:42:56;;;;;;;2.47;1.90;;;29.50;52.80;;;;;;5019483;28;20548;-64
2023/07/27 12:45:22;;;;;;;2.95;2.20;;;29.60;52.40;;;;;;5022831;28;20056;-64
2023/07/27 12:47:48;;;;;;;;;;;29.70;48.30;;;;;;5033508;28;20024;-64
2023/07/27 12:50:15;;;;;;;3.70;1.70;;;29.60;51.40;;;;;;5038488;28;19921;-65